createdAt,value
2023-05-05T00:00:50.963Z,697.00
2023-05-05T00:01:50.969Z,661.00
2023-05-05T00:02:50.945Z,675.00
2023-05-05T00:03:51.068Z,686.00
2023-05-05T00:04:50.967Z,681.00
2023-05-05T00:05:50.934Z,679.00
2023-05-05T00:06:50.961Z,677.00
2023-05-05T00:07:50.926Z,662.00
2023-05-05T00:08:50.941Z,679.00
2023-05-05T00:09:50.932Z,699.00
2023-05-05T00:10:50.924Z,653.00
2023-05-05T00:11:50.940Z,658.00
2023-05-05T00:12:50.974Z,673.00
2023-05-05T00:13:50.922Z,668.00
2023-05-05T00:14:50.903Z,658.00
2023-05-05T00:15:50.912Z,667.00
2023-05-05T00:16:50.916Z,662.00
2023-05-05T00:17:50.958Z,661.00
2023-05-05T00:18:50.930Z,663.00
2023-05-05T00:19:50.899Z,647.00
2023-05-05T00:20:50.944Z,662.00
2023-05-05T00:21:50.881Z,653.00
2023-05-05T00:22:50.890Z,661.00
2023-05-05T00:23:50.918Z,680.00
2023-05-05T00:24:50.889Z,676.00
2023-05-05T00:25:50.906Z,653.00
2023-05-05T00:26:50.865Z,661.00
2023-05-05T00:27:50.866Z,664.00
2023-05-05T00:28:50.860Z,698.00
2023-05-05T00:29:50.866Z,673.00
2023-05-05T00:30:50.956Z,659.00
2023-05-05T00:31:50.858Z,665.00
2023-05-05T00:32:50.906Z,670.00
2023-05-05T00:33:50.893Z,672.00
2023-05-05T00:34:50.864Z,678.00
2023-05-05T00:35:50.864Z,656.00
2023-05-05T00:36:50.864Z,683.00
2023-05-05T00:37:50.866Z,648.00
2023-05-05T00:38:50.850Z,668.00
2023-05-05T00:39:50.869Z,667.00
2023-05-05T00:40:50.894Z,664.00
2023-05-05T00:41:50.845Z,647.00
2023-05-05T00:42:50.956Z,674.00
2023-05-05T00:43:50.835Z,656.00
2023-05-05T00:44:50.832Z,656.00
2023-05-05T00:45:50.847Z,688.00
2023-05-05T00:46:50.922Z,667.00
2023-05-05T00:47:50.868Z,654.00
2023-05-05T00:48:50.908Z,659.00
2023-05-05T00:49:50.834Z,679.00
2023-05-05T00:50:50.880Z,663.00
2023-05-05T00:51:50.829Z,693.00
2023-05-05T00:52:50.825Z,653.00
2023-05-05T00:53:50.819Z,659.00
2023-05-05T00:54:50.829Z,655.00
2023-05-05T00:55:50.847Z,659.00
2023-05-05T00:56:50.841Z,690.00
2023-05-05T00:57:50.854Z,647.00
2023-05-05T00:58:50.854Z,656.00
2023-05-05T00:59:50.820Z,667.00
2023-05-05T01:00:50.831Z,669.00
2023-05-05T01:01:50.845Z,660.00
2023-05-05T01:02:50.969Z,655.00
2023-05-05T01:03:50.924Z,647.00
2023-05-05T01:04:50.821Z,652.00
2023-05-05T01:05:50.827Z,680.00
2023-05-05T01:06:50.860Z,660.00
2023-05-05T01:07:50.845Z,660.00
2023-05-05T01:08:50.846Z,643.00
2023-05-05T01:10:00.864Z,662.00
2023-05-05T01:10:51.825Z,657.00
2023-05-05T01:11:50.802Z,657.00
2023-05-05T01:12:50.855Z,662.00
2023-05-05T01:13:50.799Z,662.00
2023-05-05T01:14:50.792Z,680.00
2023-05-05T01:15:50.836Z,660.00
2023-05-05T01:16:50.778Z,677.00
2023-05-05T01:17:50.800Z,660.00
2023-05-05T01:18:50.767Z,657.00
2023-05-05T01:19:50.749Z,650.00
2023-05-05T01:20:50.753Z,655.00
2023-05-05T01:21:50.721Z,676.00
2023-05-05T01:22:50.743Z,699.00
2023-05-05T01:23:50.733Z,671.00
2023-05-05T01:24:50.713Z,658.00
2023-05-05T01:25:50.714Z,676.00
2023-05-05T01:26:50.690Z,688.00
2023-05-05T01:27:50.689Z,673.00
2023-05-05T01:28:50.697Z,663.00
2023-05-05T01:29:50.681Z,671.00
2023-05-05T01:30:50.684Z,670.00
2023-05-05T01:31:50.724Z,686.00
2023-05-05T01:32:50.711Z,666.00
2023-05-05T01:33:50.649Z,657.00
2023-05-05T01:34:50.656Z,659.00
2023-05-05T01:35:50.637Z,683.00
2023-05-05T01:36:50.632Z,654.00
2023-05-05T01:37:50.660Z,659.00
2023-05-05T01:38:50.622Z,656.00
2023-05-05T01:39:50.595Z,650.00
2023-05-05T01:40:50.614Z,661.00
2023-05-05T01:41:50.581Z,652.00
2023-05-05T01:42:50.610Z,645.00
2023-05-05T01:43:50.569Z,664.00
2023-05-05T01:44:50.614Z,659.00
2023-05-05T01:45:50.565Z,659.00
2023-05-05T01:46:50.568Z,661.00
2023-05-05T01:47:50.560Z,660.00
2023-05-05T01:48:50.567Z,662.00
2023-05-05T01:49:50.535Z,640.00
2023-05-05T01:50:50.536Z,649.00
2023-05-05T01:51:50.505Z,653.00
2023-05-05T01:52:50.518Z,668.00
2023-05-05T01:53:50.504Z,659.00
2023-05-05T01:54:50.535Z,681.00
2023-05-05T01:55:50.488Z,659.00
2023-05-05T01:56:50.492Z,660.00
2023-05-05T01:57:50.482Z,663.00
2023-05-05T01:58:50.497Z,642.00
2023-05-05T01:59:50.457Z,659.00
2023-05-05T02:00:50.458Z,672.00
2023-05-05T02:01:50.463Z,665.00
2023-05-05T02:02:50.533Z,655.00
2023-05-05T02:03:50.420Z,655.00
2023-05-05T02:04:50.415Z,658.00
2023-05-05T02:05:50.422Z,656.00
2023-05-05T02:06:50.426Z,659.00
2023-05-05T02:07:50.398Z,646.00
2023-05-05T02:08:50.409Z,672.00
2023-05-05T02:09:50.391Z,647.00
2023-05-05T02:10:50.417Z,649.00
2023-05-05T02:11:50.374Z,656.00
2023-05-05T02:12:50.402Z,655.00
2023-05-05T02:13:50.387Z,661.00
2023-05-05T02:14:50.407Z,661.00
2023-05-05T02:15:50.390Z,645.00
2023-05-05T02:16:50.335Z,682.00
2023-05-05T02:17:50.342Z,661.00
2023-05-05T02:18:50.347Z,649.00
2023-05-05T02:19:50.313Z,647.00
2023-05-05T02:20:50.326Z,649.00
2023-05-05T02:21:50.294Z,665.00
2023-05-05T02:22:50.291Z,665.00
2023-05-05T02:23:50.290Z,662.00
2023-05-05T02:24:50.298Z,663.00
2023-05-05T02:25:50.282Z,666.00
2023-05-05T02:26:50.290Z,648.00
2023-05-05T02:27:50.322Z,664.00
2023-05-05T02:28:50.337Z,654.00
2023-05-05T02:29:50.324Z,663.00
2023-05-05T02:30:50.306Z,663.00
2023-05-05T02:31:50.337Z,662.00
2023-05-05T02:32:50.314Z,662.00
2023-05-05T02:33:50.318Z,662.00
2023-05-05T02:34:50.316Z,663.00
2023-05-05T02:35:50.305Z,651.00
2023-05-05T02:36:50.319Z,649.00
2023-05-05T02:37:50.311Z,646.00
2023-05-05T02:38:50.309Z,665.00
2023-05-05T02:39:50.312Z,639.00
2023-05-05T02:40:50.348Z,653.00
2023-05-05T02:41:50.318Z,642.00
2023-05-05T02:42:50.485Z,654.00
2023-05-05T02:43:50.318Z,659.00
2023-05-05T02:44:50.316Z,663.00
2023-05-05T02:45:50.346Z,647.00
2023-05-05T02:46:50.397Z,639.00
2023-05-05T02:47:50.496Z,644.00
2023-05-05T02:48:50.351Z,655.00
2023-05-05T02:49:50.353Z,660.00
2023-05-05T02:50:50.383Z,665.00
2023-05-05T02:51:50.360Z,662.00
2023-05-05T02:52:50.380Z,649.00
2023-05-05T02:53:50.379Z,658.00
2023-05-05T02:54:50.388Z,664.00
2023-05-05T02:55:50.383Z,638.00
2023-05-05T02:56:50.399Z,643.00
2023-05-05T02:57:50.405Z,642.00
2023-05-05T02:58:50.387Z,655.00
2023-05-05T02:59:50.425Z,666.00
2023-05-05T03:00:50.428Z,654.00
2023-05-05T03:01:50.492Z,657.00
2023-05-05T03:02:50.498Z,653.00
2023-05-05T03:03:50.591Z,648.00
2023-05-05T03:04:50.418Z,634.00
2023-05-05T03:05:50.449Z,647.00
2023-05-05T03:06:50.436Z,649.00
2023-05-05T03:07:50.481Z,653.00
2023-05-05T03:08:50.479Z,639.00
2023-05-05T03:09:50.471Z,650.00
2023-05-05T03:10:50.495Z,654.00
2023-05-05T03:11:50.471Z,635.00
2023-05-05T03:12:50.525Z,647.00
2023-05-05T03:13:50.478Z,648.00
2023-05-05T03:14:50.482Z,636.00
2023-05-05T03:15:50.642Z,654.00
2023-05-05T03:16:50.537Z,652.00
2023-05-05T03:17:50.608Z,638.00
2023-05-05T03:18:50.498Z,655.00
2023-05-05T03:19:50.503Z,658.00
2023-05-05T03:20:50.514Z,638.00
2023-05-05T03:21:50.518Z,656.00
2023-05-05T03:22:50.563Z,656.00
2023-05-05T03:23:50.539Z,639.00
2023-05-05T03:24:50.544Z,656.00
2023-05-05T03:25:50.596Z,648.00
2023-05-05T03:26:50.601Z,652.00
2023-05-05T03:27:50.612Z,657.00
2023-05-05T03:28:50.620Z,646.00
2023-05-05T03:29:50.596Z,651.00
2023-05-05T03:30:50.669Z,651.00
2023-05-05T03:31:50.682Z,647.00
2023-05-05T03:32:50.699Z,656.00
2023-05-05T03:33:50.637Z,653.00
2023-05-05T03:34:50.634Z,644.00
2023-05-05T03:35:50.678Z,656.00
2023-05-05T03:36:50.676Z,656.00
2023-05-05T03:37:50.658Z,654.00
2023-05-05T03:38:50.663Z,653.00
2023-05-05T03:39:50.680Z,649.00
2023-05-05T03:40:50.712Z,636.00
2023-05-05T03:41:50.680Z,652.00
2023-05-05T03:42:50.697Z,651.00
2023-05-05T03:43:50.679Z,645.00
2023-05-05T03:44:50.690Z,637.00
2023-05-05T03:45:50.753Z,650.00
2023-05-05T03:46:50.687Z,654.00
2023-05-05T03:47:50.762Z,653.00
2023-05-05T03:48:50.696Z,636.00
2023-05-05T03:49:50.707Z,648.00
2023-05-05T03:50:50.721Z,653.00
2023-05-05T03:51:50.716Z,649.00
2023-05-05T03:52:50.733Z,638.00
2023-05-05T03:53:50.735Z,646.00
2023-05-05T03:54:50.746Z,642.00
2023-05-05T03:55:50.739Z,642.00
2023-05-05T03:56:50.786Z,641.00
2023-05-05T03:57:50.753Z,643.00
2023-05-05T03:58:50.770Z,643.00
2023-05-05T03:59:50.765Z,648.00
2023-05-05T04:00:50.782Z,641.00
2023-05-05T04:01:50.786Z,644.00
2023-05-05T04:02:50.866Z,646.00
2023-05-05T04:03:50.865Z,645.00
2023-05-05T04:04:50.813Z,648.00
2023-05-05T04:05:50.827Z,643.00
2023-05-05T04:06:50.860Z,643.00
2023-05-05T04:07:50.842Z,646.00
2023-05-05T04:08:50.854Z,642.00
2023-05-05T04:09:50.901Z,649.00
2023-05-05T04:10:50.851Z,633.00
2023-05-05T04:11:50.860Z,636.00
2023-05-05T04:12:50.914Z,650.00
2023-05-05T04:13:50.896Z,648.00
2023-05-05T04:14:50.867Z,647.00
2023-05-05T04:15:50.933Z,643.00
2023-05-05T04:16:50.897Z,652.00
2023-05-05T04:17:50.991Z,634.00
2023-05-05T04:18:50.903Z,646.00
2023-05-05T04:19:50.919Z,652.00
2023-05-05T04:20:50.944Z,636.00
2023-05-05T04:21:50.939Z,647.00
2023-05-05T04:22:52.588Z,634.00
2023-05-05T04:23:50.956Z,649.00
2023-05-05T04:24:50.958Z,646.00
2023-05-05T04:25:50.981Z,642.00
2023-05-05T04:26:50.982Z,643.00
2023-05-05T04:27:51.422Z,638.00
2023-05-05T04:28:51.028Z,636.00
2023-05-05T04:29:50.992Z,646.00
2023-05-05T04:30:51.013Z,648.00
2023-05-05T04:31:51.048Z,640.00
2023-05-05T04:32:51.135Z,634.00
2023-05-05T04:33:51.036Z,650.00
2023-05-05T04:34:51.039Z,644.00
2023-05-05T04:35:51.073Z,640.00
2023-05-05T04:36:51.069Z,632.00
2023-05-05T04:37:51.109Z,646.00
2023-05-05T04:38:51.121Z,643.00
2023-05-05T04:39:51.087Z,645.00
2023-05-05T04:40:51.119Z,642.00
2023-05-05T04:41:51.107Z,639.00
2023-05-05T04:42:51.094Z,640.00
2023-05-05T04:43:51.091Z,642.00
2023-05-05T04:44:51.126Z,644.00
2023-05-05T04:45:51.097Z,641.00
2023-05-05T04:46:51.251Z,635.00
2023-05-05T04:47:51.178Z,637.00
2023-05-05T04:48:51.134Z,632.00
2023-05-05T04:49:51.177Z,646.00
2023-05-05T04:50:51.152Z,641.00
2023-05-05T04:51:51.191Z,642.00
2023-05-05T04:52:52.637Z,632.00
2023-05-05T04:53:51.201Z,626.00
2023-05-05T04:54:51.222Z,635.00
2023-05-05T04:55:51.207Z,638.00
2023-05-05T04:56:51.203Z,636.00
2023-05-05T04:57:51.255Z,633.00
2023-05-05T04:58:51.216Z,629.00
2023-05-05T04:59:51.239Z,648.00
2023-05-05T05:00:51.231Z,636.00
2023-05-05T05:01:51.290Z,631.00
2023-05-05T05:02:51.328Z,641.00
2023-05-05T05:03:51.302Z,636.00
2023-05-05T05:04:51.277Z,645.00
2023-05-05T05:05:51.285Z,640.00
2023-05-05T05:06:51.299Z,626.00
2023-05-05T05:07:51.302Z,637.00
2023-05-05T05:08:51.319Z,635.00
2023-05-05T05:09:51.331Z,639.00
2023-05-05T05:10:51.318Z,634.00
2023-05-05T05:11:51.329Z,635.00
2023-05-05T05:12:51.374Z,627.00
2023-05-05T05:13:51.351Z,623.00
2023-05-05T05:14:51.334Z,624.00
2023-05-05T05:15:51.339Z,632.00
2023-05-05T05:16:51.430Z,634.00
2023-05-05T05:17:51.593Z,629.00
2023-05-05T05:18:51.357Z,630.00
2023-05-05T05:19:51.356Z,637.00
2023-05-05T05:20:51.368Z,622.00
2023-05-05T05:21:51.404Z,624.00
2023-05-05T05:22:51.408Z,620.00
2023-05-05T05:23:51.387Z,632.00
2023-05-05T05:24:51.388Z,633.00
2023-05-05T05:25:51.433Z,632.00
2023-05-05T05:26:51.461Z,617.00
2023-05-05T05:28:02.273Z,616.00
2023-05-05T05:28:52.411Z,617.00
2023-05-05T05:29:51.396Z,618.00
2023-05-05T05:30:51.493Z,618.00
2023-05-05T05:31:51.445Z,632.00
2023-05-05T05:32:51.479Z,628.00
2023-05-05T05:33:51.380Z,631.00
2023-05-05T05:34:51.363Z,634.00
2023-05-05T05:35:51.354Z,634.00
2023-05-05T05:36:51.388Z,618.00
2023-05-05T05:37:51.348Z,631.00
2023-05-05T05:38:51.414Z,630.00
2023-05-05T05:39:51.370Z,630.00
2023-05-05T05:40:51.332Z,647.00
2023-05-05T05:41:51.933Z,648.00
2023-05-05T05:42:51.306Z,690.00
2023-05-05T05:43:51.391Z,662.00
2023-05-05T05:44:51.275Z,731.00
2023-05-05T05:45:51.309Z,729.00
2023-05-05T05:46:51.333Z,745.00
2023-05-05T05:47:51.314Z,783.00
2023-05-05T05:48:51.379Z,758.00
2023-05-05T05:49:51.240Z,779.00
2023-05-05T05:50:51.260Z,809.00
2023-05-05T05:51:51.221Z,776.00
2023-05-05T05:52:51.218Z,823.00
2023-05-05T05:53:51.232Z,820.00
2023-05-05T05:54:51.254Z,827.00
2023-05-05T05:55:51.297Z,827.00
2023-05-05T05:56:51.343Z,805.00
2023-05-05T05:57:51.354Z,851.00
2023-05-05T05:58:51.428Z,842.00
2023-05-05T05:59:51.458Z,816.00
2023-05-05T06:00:51.450Z,843.00
2023-05-05T06:01:51.457Z,845.00
2023-05-05T06:02:51.592Z,843.00
2023-05-05T06:03:51.533Z,859.00
2023-05-05T06:04:51.616Z,840.00
2023-05-05T06:05:51.555Z,849.00
2023-05-05T06:06:51.943Z,865.00
2023-05-05T06:07:51.612Z,875.00
2023-05-05T06:08:51.601Z,885.00
2023-05-05T06:09:51.578Z,845.00
2023-05-05T06:10:51.654Z,881.00
2023-05-05T06:11:51.626Z,887.00
2023-05-05T06:12:51.683Z,865.00
2023-05-05T06:13:51.637Z,842.00
2023-05-05T06:14:51.615Z,878.00
2023-05-05T06:15:51.671Z,899.00
2023-05-05T06:16:51.610Z,857.00
2023-05-05T06:17:51.665Z,859.00
2023-05-05T06:18:51.605Z,880.00
2023-05-05T06:19:52.978Z,846.00
2023-05-05T06:20:51.596Z,889.00
2023-05-05T06:21:51.608Z,858.00
2023-05-05T06:22:51.574Z,889.00
2023-05-05T06:23:51.592Z,889.00
2023-05-05T06:24:51.572Z,866.00
2023-05-05T06:25:51.568Z,861.00
2023-05-05T06:26:51.547Z,849.00
2023-05-05T06:27:51.538Z,859.00
2023-05-05T06:28:51.955Z,864.00
2023-05-05T06:29:51.517Z,854.00
2023-05-05T06:30:51.511Z,873.00
2023-05-05T06:31:51.540Z,853.00
2023-05-05T06:32:51.544Z,873.00
2023-05-05T06:33:51.506Z,852.00
2023-05-05T06:34:51.494Z,852.00
2023-05-05T06:35:51.524Z,869.00
2023-05-05T06:36:51.488Z,810.00
2023-05-05T06:37:51.460Z,847.00
2023-05-05T06:38:51.962Z,853.00
2023-05-05T06:39:51.517Z,870.00
2023-05-05T06:40:51.428Z,898.00
2023-05-05T06:41:51.419Z,923.00
2023-05-05T06:42:51.409Z,935.00
2023-05-05T06:43:51.403Z,988.00
2023-05-05T06:44:51.412Z,1013.00
2023-05-05T06:45:51.399Z,1050.00
2023-05-05T06:46:51.468Z,1070.00
2023-05-05T06:47:51.408Z,1096.00
2023-05-05T06:48:51.388Z,1142.00
2023-05-05T06:49:51.391Z,1157.00
2023-05-05T06:50:51.388Z,1184.00
2023-05-05T06:51:51.410Z,1222.00
2023-05-05T06:52:51.434Z,1247.00
2023-05-05T06:53:51.329Z,1253.00
2023-05-05T06:54:51.352Z,1260.00
2023-05-05T06:55:51.319Z,1266.00
2023-05-05T06:56:51.308Z,1300.00
2023-05-05T06:57:51.329Z,1294.00
2023-05-05T06:58:51.337Z,1217.00
2023-05-05T06:59:51.295Z,1115.00
2023-05-05T07:00:51.324Z,1031.00
2023-05-05T07:01:51.296Z,884.00
2023-05-05T07:02:51.396Z,797.00
2023-05-05T07:03:51.299Z,788.00
2023-05-05T07:04:51.246Z,765.00
2023-05-05T07:05:51.257Z,746.00
2023-05-05T07:06:51.267Z,764.00
2023-05-05T07:07:51.242Z,776.00
2023-05-05T07:08:51.300Z,792.00
2023-05-05T07:09:51.223Z,818.00
2023-05-05T07:10:51.222Z,839.00
2023-05-05T07:11:51.233Z,878.00
2023-05-05T07:12:51.237Z,896.00
2023-05-05T07:13:51.188Z,916.00
2023-05-05T07:14:51.372Z,934.00
2023-05-05T07:15:51.184Z,955.00
2023-05-05T07:16:51.257Z,963.00
2023-05-05T07:17:51.231Z,975.00
2023-05-05T07:18:51.215Z,980.00
2023-05-05T07:19:51.149Z,982.00
2023-05-05T07:20:51.137Z,976.00
2023-05-05T07:21:51.132Z,997.00
2023-05-05T07:22:51.162Z,1004.00
2023-05-05T07:23:51.149Z,986.00
2023-05-05T07:24:51.765Z,986.00
2023-05-05T07:25:51.180Z,967.00
2023-05-05T07:26:51.134Z,951.00
2023-05-05T07:27:51.144Z,921.00
2023-05-05T07:28:51.481Z,915.00
2023-05-05T07:29:51.155Z,925.00
2023-05-05T07:30:51.191Z,880.00
2023-05-05T07:31:51.302Z,907.00
2023-05-05T07:32:51.294Z,882.00
2023-05-05T07:33:51.481Z,856.00
2023-05-05T07:34:51.286Z,686.00
2023-05-05T07:35:52.015Z,653.00
2023-05-05T07:36:51.426Z,654.00
2023-05-05T07:37:51.284Z,656.00
2023-05-05T07:38:51.305Z,613.00
2023-05-05T07:39:51.327Z,552.00
2023-05-05T07:40:51.393Z,541.00
2023-05-05T07:41:51.367Z,502.00
2023-05-05T07:42:51.366Z,500.00
2023-05-05T07:43:51.381Z,496.00
2023-05-05T07:44:51.414Z,500.00
2023-05-05T07:45:51.470Z,496.00
2023-05-05T07:46:51.484Z,509.00
2023-05-05T07:47:51.495Z,519.00
2023-05-05T07:48:51.501Z,500.00
2023-05-05T07:49:51.512Z,497.00
2023-05-05T07:50:51.518Z,499.00
2023-05-05T07:51:51.555Z,504.00
2023-05-05T07:52:56.333Z,501.00
2023-05-05T07:53:52.560Z,501.00
2023-05-05T07:54:51.515Z,502.00
2023-05-05T07:55:51.521Z,504.00
2023-05-05T07:56:51.593Z,478.00
2023-05-05T07:57:51.482Z,487.00
2023-05-05T07:58:51.541Z,512.00
2023-05-05T07:59:51.500Z,509.00
2023-05-05T08:00:51.506Z,501.00
2023-05-05T08:01:53.125Z,500.00
2023-05-05T08:02:51.592Z,500.00
2023-05-05T08:03:51.577Z,503.00
2023-05-05T08:04:51.442Z,519.00
2023-05-05T08:05:51.860Z,522.00
2023-05-05T08:06:51.443Z,530.00
2023-05-05T08:07:51.537Z,551.00
2023-05-05T08:08:51.465Z,521.00
2023-05-05T08:09:51.414Z,522.00
2023-05-05T08:10:51.450Z,514.00
2023-05-05T08:11:51.404Z,524.00
2023-05-05T08:12:51.564Z,522.00
2023-05-05T08:13:51.376Z,541.00
2023-05-05T08:14:51.501Z,558.00
2023-05-05T08:15:51.422Z,568.00
2023-05-05T08:16:51.366Z,589.00
2023-05-05T08:17:51.474Z,591.00
2023-05-05T08:18:51.365Z,609.00
2023-05-05T08:19:51.360Z,621.00
2023-05-05T08:20:51.362Z,648.00
2023-05-05T08:21:51.334Z,651.00
2023-05-05T08:22:51.361Z,677.00
2023-05-05T08:23:51.307Z,719.00
2023-05-05T08:24:51.327Z,706.00
2023-05-05T08:25:51.318Z,658.00
2023-05-05T08:26:51.410Z,687.00
2023-05-05T08:27:51.419Z,693.00
2023-05-05T08:28:51.384Z,664.00
2023-05-05T08:29:51.286Z,681.00
2023-05-05T08:30:51.278Z,692.00
2023-05-05T08:31:51.294Z,721.00
2023-05-05T08:32:51.300Z,740.00
2023-05-05T08:33:51.271Z,711.00
2023-05-05T08:34:51.271Z,701.00
2023-05-05T08:35:51.239Z,712.00
2023-05-05T08:36:51.233Z,746.00
2023-05-05T08:37:51.256Z,740.00
2023-05-05T08:38:51.221Z,727.00
2023-05-05T08:39:51.514Z,779.00
2023-05-05T08:40:51.215Z,802.00
2023-05-05T08:41:51.218Z,805.00
2023-05-05T08:42:51.217Z,839.00
2023-05-05T08:43:51.210Z,918.00
2023-05-05T08:44:51.581Z,932.00
2023-05-05T08:45:51.189Z,939.00
2023-05-05T08:46:51.204Z,987.00
2023-05-05T08:47:51.224Z,1050.00
2023-05-05T08:48:51.166Z,1087.00
2023-05-05T08:49:51.154Z,1114.00
2023-05-05T08:50:51.174Z,1128.00
2023-05-05T08:51:51.141Z,1153.00
2023-05-05T08:52:51.369Z,1181.00
2023-05-05T08:53:51.120Z,1223.00
2023-05-05T08:54:51.117Z,1262.00
2023-05-05T08:55:51.133Z,1320.00
2023-05-05T08:56:51.099Z,1321.00
2023-05-05T08:57:51.153Z,1368.00
2023-05-05T08:58:51.088Z,1386.00
2023-05-05T08:59:51.086Z,1394.00
2023-05-05T09:00:51.262Z,1424.00
2023-05-05T09:01:51.055Z,1450.00
2023-05-05T09:02:51.128Z,1495.00
2023-05-05T09:03:51.048Z,1506.00
2023-05-05T09:04:51.056Z,1536.00
2023-05-05T09:05:51.030Z,1545.00
2023-05-05T09:06:51.033Z,1564.00
2023-05-05T09:07:51.084Z,1606.00
2023-05-05T09:08:51.146Z,1655.00
2023-05-05T09:09:51.209Z,1699.00
2023-05-05T09:10:51.240Z,1703.00
2023-05-05T09:11:51.290Z,1729.00
2023-05-05T09:12:51.603Z,1737.00
2023-05-05T09:13:51.398Z,1739.00
2023-05-05T09:14:51.432Z,1728.00
2023-05-05T09:15:51.568Z,1738.00
2023-05-05T09:16:51.677Z,1741.00
2023-05-05T09:17:51.596Z,1758.00
2023-05-05T09:18:51.617Z,1772.00
2023-05-05T09:19:51.708Z,1788.00
2023-05-05T09:20:51.713Z,1807.00
2023-05-05T09:21:51.770Z,1812.00
2023-05-05T09:22:51.782Z,1832.00
2023-05-05T09:23:51.829Z,1841.00
2023-05-05T09:24:51.861Z,1852.00
2023-05-05T09:25:51.894Z,1855.00
2023-05-05T09:26:51.941Z,1852.00
2023-05-05T09:27:51.966Z,1846.00
2023-05-05T09:28:52.045Z,1862.00
2023-05-05T09:29:52.060Z,1897.00
2023-05-05T09:30:52.070Z,1882.00
2023-05-05T09:31:52.064Z,1777.00
2023-05-05T09:32:52.240Z,1755.00
2023-05-05T09:33:52.168Z,1653.00
2023-05-05T09:34:52.550Z,1662.00
2023-05-05T09:35:52.212Z,1661.00
2023-05-05T09:36:52.249Z,1655.00
2023-05-05T09:37:52.288Z,1631.00
2023-05-05T09:38:52.317Z,1634.00
2023-05-05T09:39:52.360Z,1614.00
2023-05-05T09:40:52.394Z,1612.00
2023-05-05T09:41:52.415Z,1640.00
2023-05-05T09:42:52.469Z,1648.00
2023-05-05T09:43:52.715Z,1636.00
2023-05-05T09:44:52.535Z,1638.00
2023-05-05T09:45:52.672Z,1608.00
2023-05-05T09:46:52.712Z,1613.00
2023-05-05T09:47:56.520Z,1621.00
2023-05-05T09:48:53.695Z,1621.00
2023-05-05T09:49:52.650Z,1604.00
2023-05-05T09:50:52.658Z,1579.00
2023-05-05T09:51:52.620Z,1562.00
2023-05-05T09:52:52.633Z,1565.00
2023-05-05T09:53:52.620Z,1558.00
2023-05-05T09:54:52.721Z,1538.00
2023-05-05T09:55:52.644Z,1509.00
2023-05-05T09:56:52.580Z,1478.00
2023-05-05T09:57:52.595Z,1474.00
2023-05-05T09:58:52.678Z,1466.00
2023-05-05T09:59:52.715Z,1451.00
2023-05-05T10:00:52.773Z,1466.00
2023-05-05T10:01:52.890Z,1455.00
2023-05-05T10:02:52.914Z,1449.00
2023-05-05T10:03:53.002Z,1414.00
2023-05-05T10:04:53.082Z,1429.00
2023-05-05T10:05:53.072Z,1415.00
2023-05-05T10:06:53.147Z,1386.00
2023-05-05T10:07:53.205Z,1341.00
2023-05-05T10:08:53.254Z,1328.00
2023-05-05T10:09:53.310Z,1298.00
2023-05-05T10:10:53.383Z,1295.00
2023-05-05T10:11:53.412Z,1301.00
2023-05-05T10:12:53.519Z,1284.00
2023-05-05T10:13:53.550Z,1272.00
2023-05-05T10:14:53.633Z,1294.00
2023-05-05T10:15:53.705Z,1252.00
2023-05-05T10:16:53.694Z,1229.00
2023-05-05T10:18:06.117Z,1211.00
2023-05-05T10:18:54.749Z,1212.00
2023-05-05T10:19:53.750Z,1193.00
2023-05-05T10:20:53.809Z,1108.00
2023-05-05T10:21:53.740Z,961.00
2023-05-05T10:22:53.719Z,927.00
2023-05-05T10:23:53.751Z,957.00
2023-05-05T10:24:53.778Z,922.00
2023-05-05T10:25:53.826Z,880.00
2023-05-05T10:26:53.871Z,912.00
2023-05-05T10:27:54.034Z,913.00
2023-05-05T10:28:53.946Z,992.00
2023-05-05T10:29:53.958Z,1027.00
2023-05-05T10:30:53.974Z,923.00
2023-05-05T10:31:54.069Z,866.00
2023-05-05T10:33:03.464Z,857.00
2023-05-05T10:33:55.168Z,805.00
2023-05-05T10:34:54.080Z,859.00
2023-05-05T10:35:54.051Z,877.00
2023-05-05T10:36:54.257Z,898.00
2023-05-05T10:37:54.004Z,877.00
2023-05-05T10:38:53.986Z,952.00
2023-05-05T10:39:53.988Z,807.00
2023-05-05T10:40:53.990Z,839.00
2023-05-05T10:41:53.983Z,698.00
2023-05-05T10:42:54.082Z,760.00
2023-05-05T10:43:53.960Z,873.00
2023-05-05T10:44:54.141Z,886.00
2023-05-05T10:45:54.084Z,907.00
2023-05-05T10:46:53.933Z,902.00
2023-05-05T10:47:53.947Z,1026.00
2023-05-05T10:48:53.981Z,1067.00
2023-05-05T10:49:54.070Z,959.00
2023-05-05T10:50:53.927Z,994.00
2023-05-05T10:51:54.012Z,841.00
2023-05-05T10:52:54.098Z,908.00
2023-05-05T10:53:54.057Z,935.00
2023-05-05T10:54:54.045Z,982.00
2023-05-05T10:55:54.044Z,847.00
2023-05-05T10:56:54.088Z,829.00
2023-05-05T10:57:54.089Z,540.00
2023-05-05T10:59:00.287Z,506.00
2023-05-05T10:59:55.131Z,430.00
2023-05-05T11:00:54.156Z,435.00
2023-05-05T11:01:54.101Z,400.00
2023-05-05T11:02:54.142Z,470.00
2023-05-05T11:03:54.133Z,414.00
2023-05-05T11:04:54.102Z,400.00
2023-05-05T11:05:54.089Z,400.00
2023-05-05T11:06:54.077Z,400.00
2023-05-05T11:07:54.106Z,432.00
2023-05-05T11:08:54.115Z,501.00
2023-05-05T11:09:54.066Z,504.00
2023-05-05T11:10:54.087Z,532.00
2023-05-05T11:11:54.033Z,500.00
2023-05-05T11:12:54.108Z,569.00
2023-05-05T11:13:54.010Z,563.00
2023-05-05T11:14:54.063Z,526.00
2023-05-05T11:15:54.130Z,507.00
2023-05-05T11:16:54.039Z,601.00
2023-05-05T11:17:54.100Z,713.00
2023-05-05T11:18:53.995Z,874.00
2023-05-05T11:19:53.983Z,945.00
2023-05-05T11:20:53.975Z,1046.00
2023-05-05T11:21:53.990Z,1112.00
2023-05-05T11:22:54.001Z,1148.00
2023-05-05T11:23:54.069Z,1181.00
2023-05-05T11:24:54.077Z,1219.00
2023-05-05T11:25:54.048Z,1271.00
2023-05-05T11:26:54.076Z,1278.00
2023-05-05T11:27:54.102Z,1329.00
2023-05-05T11:28:54.159Z,1311.00
2023-05-05T11:29:54.210Z,1293.00
2023-05-05T11:30:54.229Z,1244.00
2023-05-05T11:31:54.218Z,1271.00
2023-05-05T11:32:54.265Z,1266.00
2023-05-05T11:33:54.274Z,1299.00
2023-05-05T11:34:54.333Z,1327.00
2023-05-05T11:35:54.353Z,1355.00
2023-05-05T11:36:54.427Z,1363.00
2023-05-05T11:37:54.420Z,1398.00
2023-05-05T11:38:54.485Z,1397.00
2023-05-05T11:39:54.513Z,1450.00
2023-05-05T11:40:54.566Z,1458.00
2023-05-05T11:41:54.599Z,1456.00
2023-05-05T11:42:54.639Z,1480.00
2023-05-05T11:43:54.709Z,1502.00
2023-05-05T11:44:54.736Z,1543.00
2023-05-05T11:45:54.837Z,1583.00
2023-05-05T11:46:54.837Z,1583.00
2023-05-05T11:47:55.059Z,1601.00
2023-05-05T11:48:54.949Z,1622.00
2023-05-05T11:49:54.995Z,1628.00
2023-05-05T11:50:55.029Z,1653.00
2023-05-05T11:51:55.088Z,1643.00
2023-05-05T11:52:55.127Z,1657.00
2023-05-05T11:53:56.015Z,1670.00
2023-05-05T11:54:55.252Z,1674.00
2023-05-05T11:55:55.306Z,1669.00
2023-05-05T11:56:55.346Z,1665.00
2023-05-05T11:57:55.421Z,1681.00
2023-05-05T11:58:55.487Z,1699.00
2023-05-05T11:59:55.498Z,1691.00
2023-05-05T12:00:55.580Z,1726.00
2023-05-05T12:01:55.609Z,1714.00
2023-05-05T12:02:55.831Z,1705.00
2023-05-05T12:03:55.881Z,1708.00
2023-05-05T12:04:55.910Z,1714.00
2023-05-05T12:05:55.817Z,1710.00
2023-05-05T12:06:55.882Z,1729.00
2023-05-05T12:07:55.938Z,1740.00
2023-05-05T12:08:55.989Z,1739.00
2023-05-05T12:09:56.055Z,1750.00
2023-05-05T12:10:56.122Z,1727.00
2023-05-05T12:11:56.163Z,1740.00
2023-05-05T12:12:56.436Z,1747.00
2023-05-05T12:13:56.274Z,1757.00
2023-05-05T12:14:56.348Z,1739.00
2023-05-05T12:15:56.378Z,1745.00
2023-05-05T12:16:56.454Z,1741.00
2023-05-05T12:17:56.592Z,1747.00
2023-05-05T12:18:56.566Z,1747.00
2023-05-05T12:19:56.606Z,1750.00
2023-05-05T12:20:56.685Z,1755.00
2023-05-05T12:21:56.713Z,1749.00
2023-05-05T12:22:56.804Z,1738.00